Time;durP1;ratioP1;P1;durP2;ratioP2;P2;SDS_P1;SDS_P2;PMS_P1;PMS_P2;Temp;Humidity;BMP_temperature;BMP_pressure;BME280_temperature;BME280_humidity;BME280_pressure;Samples;Min_cycle;Max_cycle;Signal;HPM_P1;HPM_P2
2023/05/13 00:01:25;;;;;;;;;12.75;12.75;;;;;13.87;98.27;100963.47;5054401;28;45979;-75
2023/05/13 00:03:51;;;;;;;;;11.50;11.50;;;;;13.87;98.63;100959.06;5057264;28;45367;-74
2023/05/13 00:06:16;;;;;;;;;14.50;14.50;;;;;13.91;98.79;100980.06;5057874;28;45403;-83
2023/05/13 00:08:41;;;;;;;;;12.50;12.50;;;;;13.90;98.89;100975.72;5057284;28;45397;-82
2023/05/13 00:11:07;;;;;;;;;12.50;12.50;;;;;13.90;98.97;100963.34;5058464;28;45355;-80
2023/05/13 00:13:33;;;;;;;;;11.50;11.50;;;;;13.87;99.08;100955.53;5057321;28;45346;-76
2023/05/13 00:15:58;;;;;;;;;8.75;8.75;;;;;13.87;99.20;100958.19;5055451;28;47307;-72
2023/05/13 00:18:24;;;;;;;;;10.25;10.25;;;;;13.91;99.58;100964.19;5052497;28;45330;-72
2023/05/13 00:20:50;;;;;;;;;10.50;10.50;;;;;13.84;99.43;100955.69;5053250;28;45327;-77
2023/05/13 00:23:15;;;;;;;;;13.00;13.00;;;;;13.82;100.00;100968.13;5053549;28;45383;-73
2023/05/13 00:25:42;;;;;;;;;13.00;13.00;;;;;13.81;100.00;100969.06;5053366;28;49931;-73
2023/05/13 00:28:08;;;;;;;;;12.00;12.00;;;;;13.75;100.00;100970.19;5056443;28;45403;-75
2023/05/13 00:30:33;;;;;;;;;13.00;13.00;;;;;13.73;100.00;100972.94;5057082;28;45381;-73
2023/05/13 00:32:58;;;;;;;;;12.25;12.25;;;;;13.70;100.00;100964.28;5057108;28;45575;-74
2023/05/13 00:35:24;;;;;;;;;13.75;13.75;;;;;13.69;100.00;100974.00;5057319;28;45518;-69
2023/05/13 00:37:49;;;;;;;;;17.00;16.25;;;;;13.70;100.00;100964.28;5055942;28;45418;-74
2023/05/13 00:40:24;;;;;;;;;13.50;13.50;;;;;13.67;100.00;100975.00;5057131;28;45389;-71
2023/05/13 00:42:50;;;;;;;;;14.00;14.00;;;;;13.65;100.00;100972.44;5057756;28;45351;-72
2023/05/13 00:45:16;;;;;;;;;13.75;13.75;;;;;13.61;100.00;100970.00;5056521;28;46181;-72
2023/05/13 00:47:42;;;;;;;;;14.25;14.25;;;;;13.59;100.00;100965.63;5056371;28;45434;-72
2023/05/13 00:50:13;;;;;;;;;16.75;16.75;;;;;13.53;100.00;100971.19;5057106;28;45222;-77
2023/05/13 00:52:39;;;;;;;;;13.50;13.50;;;;;13.50;100.00;100968.72;5060933;28;45330;-69
2023/05/13 00:55:06;;;;;;;;;13.25;13.25;;;;;13.49;100.00;100976.72;5058403;28;46026;-77
2023/05/13 00:57:32;;;;;;;;;11.25;11.25;;;;;13.44;100.00;100971.63;5057188;28;45327;-73
2023/05/13 00:59:58;;;;;;;;;11.25;11.25;;;;;13.43;100.00;100972.56;5056764;28;45378;-75
2023/05/13 01:02:33;;;;;;;;;13.00;13.00;;;;;13.38;100.00;100975.41;5056027;28;45338;-79
2023/05/13 01:05:03;;;;;;;;;15.75;15.00;;;;;13.41;100.00;100979.66;5056657;28;45419;-74
2023/05/13 01:07:47;;;;;;;;;13.25;13.25;;;;;13.41;100.00;100982.31;5056735;28;45465;-75
2023/05/13 01:10:46;;;;;;;;;14.75;14.75;;;;;13.40;100.00;100973.53;5057564;28;45406;-70
2023/05/13 01:13:15;;;;;;;;;13.00;13.00;;;;;13.43;100.00;100980.50;5072136;28;45466;-73
2023/05/13 01:15:51;;;;;;;;;12.00;12.00;;;;;13.43;100.00;100976.06;5056208;28;46150;-66
2023/05/13 01:18:27;;;;;;;;;15.25;15.25;;;;;13.43;100.00;100970.78;5056694;28;45772;-76
2023/05/13 01:20:53;;;;;;;;;15.25;15.25;;;;;13.41;100.00;100969.09;5056607;28;45300;-74
2023/05/13 01:23:18;;;;;;;;;15.25;15.25;;;;;13.39;100.00;100963.91;5056372;28;45276;-73
2023/05/13 01:25:44;;;;;;;;;22.50;22.50;;;;;13.39;100.00;100966.53;5056172;28;45414;-78
2023/05/13 01:28:09;;;;;;;;;12.00;12.00;;;;;13.43;100.00;100972.56;5056110;28;45403;-73
2023/05/13 01:30:36;;;;;;;;;14.25;14.25;;;;;13.42;100.00;100970.84;5056399;28;45434;-73
2023/05/13 01:33:02;;;;;;;;;12.00;12.00;;;;;13.37;100.00;100960.47;5056379;28;45402;-68
2023/05/13 01:35:28;;;;;;;;;12.00;12.00;;;;;13.38;100.00;100974.53;5055963;28;45595;-68
2023/05/13 01:37:56;;;;;;;;;12.75;12.75;;;;;13.38;100.00;100979.81;5055826;28;45278;-67
2023/05/13 01:40:22;;;;;;;;;12.25;11.25;;;;;13.34;100.00;100967.66;5056161;28;45287;-70
2023/05/13 01:42:47;;;;;;;;;12.75;12.75;;;;;13.29;100.00;100968.75;5055905;28;45323;-75
2023/05/13 01:45:13;;;;;;;;;13.00;13.00;;;;;13.30;100.00;100983.66;5055790;28;46425;-67
2023/05/13 01:47:38;;;;;;;;;17.75;17.75;;;;;13.28;100.00;100984.69;5055951;28;45816;-70
2023/05/13 01:50:04;;;;;;;;;17.25;17.25;;;;;13.29;100.00;100984.59;5054535;28;45833;-66
2023/05/13 01:52:29;;;;;;;;;13.00;13.00;;;;;13.28;100.00;100985.50;5056146;28;45328;-71
2023/05/13 01:54:55;;;;;;;;;17.75;17.75;;;;;13.27;100.00;100982.97;5055997;28;45433;-74
2023/05/13 01:57:20;;;;;;;;;15.75;15.00;;;;;13.25;100.00;100987.41;5055449;28;45501;-75
2023/05/13 01:59:46;;;;;;;;;17.75;17.50;;;;;13.24;100.00;100986.59;5055558;28;45335;-77
2023/05/13 02:02:11;;;;;;;;;13.00;13.00;;;;;13.22;100.00;100991.06;5055291;28;49115;-76
2023/05/13 02:04:36;;;;;;;;;13.75;13.75;;;;;13.17;100.00;100990.41;5055185;28;57486;-76
2023/05/13 02:07:02;;;;;;;;;15.00;15.00;;;;;13.14;100.00;100994.03;5055351;28;45353;-77
2023/05/13 02:09:27;;;;;;;;;15.50;15.50;;;;;13.02;100.00;100973.47;5055838;28;45731;-77
2023/05/13 02:11:52;;;;;;;;;14.50;14.50;;;;;13.08;100.00;100991.69;5055596;28;45281;-74
2023/05/13 02:14:18;;;;;;;;;14.75;14.75;;;;;13.04;100.00;100983.97;5055179;28;45306;-76
2023/05/13 02:16:43;;;;;;;;;15.25;15.25;;;;;13.05;100.00;100994.44;5055768;28;45410;-75
2023/05/13 02:19:08;;;;;;;;;15.25;15.25;;;;;13.07;100.00;100987.31;5055463;28;45284;-75
2023/05/13 02:21:34;;;;;;;;;18.25;17.25;;;;;13.05;100.00;100980.41;5055515;28;45533;-74
2023/05/13 02:23:59;;;;;;;;;21.00;21.00;;;;;13.07;100.00;100991.75;5053808;28;55913;-77
2023/05/13 02:26:25;;;;;;;;;20.25;20.25;;;;;13.12;100.00;100990.63;5055431;28;45189;-74
2023/05/13 02:28:50;;;;;;;;;23.00;23.00;;;;;13.12;100.00;100987.13;5055320;28;45404;-71
2023/05/13 02:31:15;;;;;;;;;22.00;22.00;;;;;13.10;100.00;100986.34;5055611;28;45310;-74
2023/05/13 02:33:41;;;;;;;;;19.75;19.75;;;;;13.18;100.00;100992.13;5055174;28;45357;-74
2023/05/13 02:36:06;;;;;;;;;22.75;22.00;;;;;13.21;100.00;100985.84;5055213;28;48774;-75
2023/05/13 02:38:31;;;;;;;;;21.00;21.00;;;;;13.20;100.00;100985.00;5055856;28;45783;-74
2023/05/13 02:40:58;;;;;;;;;19.50;19.50;;;;;13.27;100.00;100985.59;5056692;28;45434;-74
2023/05/13 02:43:23;;;;;;;;;21.50;21.25;;;;;13.28;100.00;100974.94;5055121;28;45397;-72
2023/05/13 02:45:49;;;;;;;;;21.50;21.50;;;;;13.28;100.00;100968.81;5054679;28;45350;-71
2023/05/13 02:48:14;;;;;;;;;23.75;22.75;;;;;13.32;100.00;100974.81;5055095;28;45370;-71
2023/05/13 02:50:40;;;;;;;;;23.00;23.00;;;;;13.33;100.00;100972.13;5054268;28;45406;-72
2023/05/13 02:53:06;;;;;;;;;20.75;20.75;;;;;13.37;100.00;100978.09;5055079;28;46289;-73
2023/05/13 02:55:31;;;;;;;;;22.50;22.50;;;;;13.34;100.00;100979.09;5054151;28;45304;-67
2023/05/13 02:57:56;;;;;;;;;23.00;23.00;;;;;13.34;100.00;100975.59;5055093;28;45396;-73
2023/05/13 03:00:22;;;;;;;;;22.75;22.75;;;;;13.36;100.00;100984.31;5055182;28;45318;-72
2023/05/13 03:02:47;;;;;;;;;21.75;21.75;;;;;13.33;100.00;100993.25;5055062;28;45493;-72
2023/05/13 03:05:13;;;;;;;;;21.50;20.50;;;;;13.26;100.00;100990.00;5054689;28;45627;-75
2023/05/13 03:07:38;;;;;;;;;25.00;25.00;;;;;13.24;100.00;100986.59;5055146;28;45326;-73
2023/05/13 03:10:04;;;;;;;;;26.00;26.00;;;;;13.18;100.00;100985.97;5055224;28;45287;-66
2023/05/13 03:12:30;;;;;;;;;21.25;21.25;;;;;13.17;100.00;100981.63;5054629;28;46970;-73
2023/05/13 03:14:55;;;;;;;;;25.25;25.25;;;;;13.17;100.00;100987.78;5054414;28;45343;-73
2023/05/13 03:17:20;;;;;;;;;24.00;24.00;;;;;13.12;100.00;100981.84;5054660;28;45471;-71
2023/05/13 03:19:46;;;;;;;;;27.25;27.25;;;;;13.15;100.00;100984.34;5054800;28;45656;-71
2023/05/13 03:22:11;;;;;;;;;29.25;29.25;;;;;13.17;100.00;100994.84;5052658;28;56004;-74
2023/05/13 03:24:36;;;;;;;;;28.50;26.75;;;;;13.13;100.00;100987.03;5054531;28;45361;-74
2023/05/13 03:27:02;;;;;;;;;31.25;29.75;;;;;13.08;100.00;100982.91;5054920;28;45327;-75
2023/05/13 03:29:27;;;;;;;;;31.50;30.25;;;;;13.10;100.00;100983.69;5054449;28;45623;-75
2023/05/13 03:31:53;;;;;;;;;39.50;35.75;;;;;13.09;100.00;100987.25;5054418;28;46197;-73
2023/05/13 03:34:18;;;;;;;;;31.75;31.25;;;;;13.06;100.00;100984.75;5054146;28;45869;-74
2023/05/13 03:36:43;;;;;;;;;30.00;30.00;;;;;13.06;100.00;100995.31;5054594;28;45389;-74
2023/05/13 03:39:09;;;;;;;;;39.00;34.50;;;;;13.06;100.00;100993.53;5053248;28;45458;-73
2023/05/13 03:41:34;;;;;;;;;37.50;34.50;;;;;13.04;100.00;100990.09;5054537;28;45947;-73
2023/05/13 03:44:00;;;;;;;;;37.50;35.00;;;;;12.98;100.00;100988.59;5054171;28;45488;-72
2023/05/13 03:46:26;;;;;;;;;41.00;36.50;;;;;13.00;100.00;100975.31;5054620;28;45454;-70
2023/05/13 03:48:52;;;;;;;;;40.00;36.25;;;;;13.09;100.00;100990.75;5054478;28;45229;-70
2023/05/13 03:51:17;;;;;;;;;47.75;39.75;;;;;13.08;100.00;100993.47;5053893;28;46972;-75
2023/05/13 03:53:43;;;;;;;;;45.00;37.75;;;;;13.09;100.00;100985.47;5054148;28;45292;-67
2023/05/13 03:56:08;;;;;;;;;46.00;39.75;;;;;13.12;100.00;100995.91;5054371;28;45174;-72
2023/05/13 03:58:33;;;;;;;;;52.25;44.00;;;;;13.08;100.00;100990.84;5054517;28;45536;-75
2023/05/13 04:00:58;;;;;;;;;49.00;41.50;;;;;13.09;100.00;100998.66;5055149;28;45395;-72
2023/05/13 04:03:24;;;;;;;;;49.00;41.75;;;;;13.07;100.00;101003.16;5057594;28;45192;-73
2023/05/13 04:05:51;;;;;;;;;52.50;44.50;;;;;13.12;100.00;101002.97;5057587;28;45296;-74
2023/05/13 04:08:16;;;;;;;;;48.00;40.75;;;;;13.12;100.00;101006.47;5057893;28;45426;-74
2023/05/13 04:10:41;;;;;;;;;49.50;42.25;;;;;13.09;100.00;100998.66;5057415;28;45447;-74
2023/05/13 04:13:07;;;;;;;;;52.75;45.25;;;;;13.11;100.00;101009.19;5057689;28;45230;-73
2023/05/13 04:15:32;;;;;;;;;53.00;45.75;;;;;13.13;100.00;101020.53;5057866;28;45227;-74
2023/05/13 04:17:58;;;;;;;;;55.75;46.25;;;;;13.13;100.00;101018.75;5057743;28;45759;-74
2023/05/13 04:20:23;;;;;;;;;50.50;42.75;;;;;13.14;100.00;101017.81;5057191;28;45326;-73
2023/05/13 04:22:50;;;;;;;;;54.50;45.50;;;;;13.17;100.00;101016.84;5058267;28;45418;-74
2023/05/13 04:25:15;;;;;;;;;56.00;46.00;;;;;13.17;100.00;101021.25;5058302;28;45469;-74
2023/05/13 04:27:40;;;;;;;;;57.00;47.50;;;;;13.22;100.00;101022.78;5057357;28;45391;-71
2023/05/13 04:30:06;;;;;;;;;54.25;45.75;;;;;13.21;100.00;101018.41;5057053;28;56237;-73
2023/05/13 04:32:31;;;;;;;;;55.25;46.50;;;;;13.24;100.00;101020.03;5056967;28;45465;-72
2023/05/13 04:34:57;;;;;;;;;58.25;48.25;;;;;13.21;100.00;101026.34;5057028;28;45445;-71
2023/05/13 04:37:22;;;;;;;;;58.50;48.00;;;;;13.15;100.00;101019.53;5057165;28;45371;-72
2023/05/13 04:39:48;;;;;;;;;57.25;47.25;;;;;13.18;100.00;101022.97;5055412;28;46163;-74
2023/05/13 04:42:14;;;;;;;;;58.00;48.00;;;;;13.19;100.00;101017.63;5055411;28;45304;-74
2023/05/13 04:44:39;;;;;;;;;54.50;45.25;;;;;13.17;100.00;101022.13;5057275;28;45380;-69
2023/05/13 04:47:05;;;;;;;;;55.50;46.25;;;;;13.17;100.00;101019.47;5055180;28;45573;-74
2023/05/13 04:49:30;;;;;;;;;61.75;50.50;;;;;13.17;100.00;101019.47;5055941;28;46471;-73
2023/05/13 04:51:56;;;;;;;;;59.75;47.25;;;;;13.15;100.00;101021.34;5056719;28;45318;-74
2023/05/13 04:54:21;;;;;;;;;57.50;48.25;;;;;13.15;100.00;101035.38;5056754;28;45281;-72
2023/05/13 04:56:47;;;;;;;;;56.25;46.50;;;;;13.13;100.00;101029.31;5056847;28;45399;-74
2023/05/13 04:59:12;;;;;;;;;57.50;48.75;;;;;13.15;100.00;101042.47;5056316;28;46394;-73
2023/05/13 05:01:38;;;;;;;;;57.00;47.00;;;;;13.12;100.00;101042.59;5056803;28;45380;-71
2023/05/13 05:04:04;;;;;;;;;59.75;50.00;;;;;13.12;100.00;101046.06;5056315;28;45311;-72
2023/05/13 05:06:30;;;;;;;;;59.75;49.50;;;;;13.16;100.00;101052.09;5056630;28;45388;-72
2023/05/13 05:08:55;;;;;;;;;56.25;46.50;;;;;13.15;100.00;101048.59;5056118;28;46017;-70
2023/05/13 05:11:21;;;;;;;;;56.25;46.75;;;;;13.12;100.00;101050.53;5056080;28;45298;-71
2023/05/13 05:13:46;;;;;;;;;56.25;47.75;;;;;13.11;100.00;101052.28;5055468;28;45294;-74
2023/05/13 05:16:11;;;;;;;;;58.50;49.00;;;;;13.09;100.00;101053.28;5056170;28;48963;-67
2023/05/13 05:18:39;;;;;;;;;57.75;47.75;;;;;13.08;100.00;101051.56;5056415;28;45345;-72
2023/05/13 05:21:05;;;;;;;;;58.75;48.25;;;;;13.04;100.00;101065.84;5056357;28;45239;-72
2023/05/13 05:23:31;;;;;;;;;59.25;49.00;;;;;13.00;100.00;101065.97;5056491;28;45242;-70
2023/05/13 05:25:58;;;;;;;;;53.50;44.00;;;;;12.94;100.00;101068.88;5056727;28;45597;-70
2023/05/13 05:28:24;;;;;;;;;61.25;49.75;;;;;12.97;100.00;101071.38;5056205;28;46527;-70
2023/05/13 05:30:50;;;;;;;;;59.25;48.00;;;;;12.95;100.00;101067.94;5056192;28;45291;-70
2023/05/13 05:33:15;;;;;;;;;57.25;46.50;;;;;12.99;100.00;101077.47;5056332;28;45332;-75
2023/05/13 05:35:41;;;;;;;;;62.25;50.50;;;;;12.97;100.00;101079.31;5056839;28;45389;-70
2023/05/13 05:38:07;;;;;;;;;59.00;47.75;;;;;13.03;100.00;101091.38;5055974;28;46455;-71
2023/05/13 05:40:38;;;;;;;;;58.00;48.25;;;;;12.99;100.00;101080.09;5056201;28;45808;-71
2023/05/13 05:43:03;;;;;;;;;51.50;43.75;;;;;13.01;100.00;101085.31;5056384;28;45461;-71
2023/05/13 05:45:29;;;;;;;;;54.00;44.25;;;;;13.06;100.00;101093.88;5056459;28;45322;-72
2023/05/13 05:47:56;;;;;;;;;56.00;46.50;;;;;13.06;100.00;101098.31;5055796;28;46142;-71
2023/05/13 05:50:22;;;;;;;;;54.25;45.25;;;;;13.06;100.00;101101.81;5055583;28;45420;-71
2023/05/13 05:52:47;;;;;;;;;57.00;47.25;;;;;13.08;100.00;101101.75;5071025;28;45395;-68
2023/05/13 05:55:13;;;;;;;;;63.25;49.50;;;;;13.08;100.00;101105.25;5056273;28;45434;-69
2023/05/13 05:57:38;;;;;;;;;57.50;48.25;;;;;13.13;100.00;101113.81;5054031;28;48018;-66
2023/05/13 06:00:04;;;;;;;;;60.25;50.25;;;;;13.18;100.00;101120.69;5054855;28;53472;-71
2023/05/13 06:02:29;;;;;;;;;55.75;46.25;;;;;13.22;100.00;101120.50;5054041;28;45408;-68
2023/05/13 06:04:55;;;;;;;;;53.00;44.25;;;;;13.30;100.00;101123.69;5055984;28;45494;-69
2023/05/13 06:07:20;;;;;;;;;57.00;47.25;;;;;13.37;100.00;101110.22;5056132;28;46294;-68
2023/05/13 06:09:45;;;;;;;;;54.00;44.50;;;;;13.44;100.00;101115.22;5055926;28;45362;-66
2023/05/13 06:12:11;;;;;;;;;55.00;46.25;;;;;13.55;100.00;101119.16;5056352;28;45303;-70
2023/05/13 06:14:36;;;;;;;;;54.75;45.25;;;;;13.59;100.00;101121.59;5054001;28;45570;-71
2023/05/13 06:17:01;;;;;;;;;58.25;47.25;;;;;13.63;100.00;101113.50;5053527;28;49442;-70
2023/05/13 06:19:27;;;;;;;;;56.50;47.00;;;;;13.68;100.00;101122.97;5055208;28;45366;-68
2023/05/13 06:21:52;;;;;;;;;52.25;44.00;;;;;13.69;100.00;101124.69;5054972;28;49262;-74
2023/05/13 06:24:17;;;;;;;;;54.00;45.75;;;;;13.76;100.00;101132.34;5055375;28;45540;-67
2023/05/13 06:26:44;;;;;;;;;54.50;46.00;;;;;13.78;100.00;101135.78;5055466;28;46701;-71
2023/05/13 06:29:09;;;;;;;;;54.75;46.00;;;;;13.83;100.00;101139.94;5054892;28;45373;-70
2023/05/13 06:31:35;;;;;;;;;55.25;47.75;;;;;13.82;100.00;101143.53;5055222;28;45362;-70
2023/05/13 06:34:00;;;;;;;;;56.25;47.00;;;;;13.85;100.00;101146.03;5055252;28;45524;-73
2023/05/13 06:36:25;;;;;;;;;56.50;47.25;;;;;13.93;100.00;101144.81;5055051;28;46465;-72
2023/05/13 06:38:52;;;;;;;;;53.25;45.00;;;;;14.01;100.00;101153.25;5053412;28;45948;-71
2023/05/13 06:41:17;;;;;;;;;54.75;45.25;;;;;14.09;100.00;101151.13;5053584;28;45440;-74
2023/05/13 06:43:44;;;;;;;;;56.25;47.00;;;;;14.16;100.00;101163.13;5054044;28;45657;-73
2023/05/13 06:46:10;;;;;;;;;52.50;44.50;;;;;14.25;100.00;101155.69;5052776;28;48087;-73
2023/05/13 06:48:35;;;;;;;;;51.00;43.50;;;;;14.36;100.00;101158.69;5054724;28;45279;-69
2023/05/13 06:51:01;;;;;;;;;56.25;46.75;;;;;14.48;100.00;101157.28;5054472;28;45310;-71
2023/05/13 06:53:26;;;;;;;;;57.50;47.75;;;;;14.53;100.00;101149.97;5054750;28;45543;-70
2023/05/13 06:55:51;;;;;;;;;53.00;45.00;;;;;14.65;100.00;101161.75;5054490;28;46766;-71
2023/05/13 06:58:17;;;;;;;;;56.25;47.25;;;;;14.71;100.00;101153.53;5055094;28;45467;-71
2023/05/13 07:00:44;;;;;;;;;53.25;45.00;;;;;14.74;100.00;101157.84;5054756;28;45332;-71
2023/05/13 07:03:10;;;;;;;;;53.25;45.00;;;;;14.78;100.00;101164.72;5054745;28;45398;-72
2023/05/13 07:05:36;;;;;;;;;53.25;44.50;;;;;14.80;98.92;101160.19;5054639;28;45369;-71
2023/05/13 07:08:05;;;;;;;;;54.25;45.00;;;;;14.77;98.60;101160.34;5054303;28;45344;-71
2023/05/13 07:10:32;;;;;;;;;55.75;46.00;;;;;14.81;98.83;101163.69;5054817;28;45324;-72
2023/05/13 07:12:57;;;;;;;;;53.25;43.25;;;;;14.81;98.31;101171.63;5054609;28;45398;-71
2023/05/13 07:15:23;;;;;;;;;56.00;46.75;;;;;14.77;98.40;101165.63;5054509;28;46348;-73
2023/05/13 07:17:48;;;;;;;;;53.50;43.75;;;;;14.79;98.08;101161.13;5054673;28;45295;-72
2023/05/13 07:20:14;;;;;;;;;53.75;45.50;;;;;14.79;98.04;101160.25;5054560;28;45484;-71
2023/05/13 07:22:39;;;;;;;;;52.00;44.00;;;;;14.73;98.08;101146.38;5053084;28;45473;-71
2023/05/13 07:25:05;;;;;;;;;56.00;46.75;;;;;14.82;97.50;101163.63;5053977;28;45627;-72
2023/05/13 07:27:30;;;;;;;;;56.50;47.50;;;;;14.89;97.84;101164.19;5052475;28;45278;-72
2023/05/13 07:29:56;;;;;;;;;58.00;47.75;;;;;14.94;97.33;101163.94;5053382;28;45496;-72
2023/05/13 07:32:21;;;;;;;;;55.25;45.75;;;;;15.01;97.57;101160.94;5034325;28;45560;-72
2023/05/13 07:34:47;;;;;;;;;53.25;45.25;;;;;15.12;96.82;101164.84;5031969;28;49202;-70
2023/05/13 07:37:12;;;;;;;;;54.75;46.00;;;;;15.16;96.53;101148.69;5036237;28;57183;-70
2023/05/13 07:39:37;;;;;;;;;55.50;46.25;;;;;15.27;96.06;101163.19;5037496;28;45301;-69
2023/05/13 07:42:03;;;;;;;;;55.75;46.50;;;;;15.39;96.06;101159.06;5034277;28;45451;-70
2023/05/13 07:44:29;;;;;;;;;55.50;46.25;;;;;15.52;95.00;101160.16;5037117;28;46439;-69
2023/05/13 07:46:54;;;;;;;;;58.00;48.00;;;;;15.63;93.97;101163.09;5037566;28;45398;-70
2023/05/13 07:49:20;;;;;;;;;60.00;49.75;;;;;15.79;93.66;101180.84;5038200;28;45234;-68
2023/05/13 07:51:46;;;;;;;;;60.00;49.50;;;;;15.85;91.62;101180.53;5038185;28;45363;-70
2023/05/13 07:54:11;;;;;;;;;60.25;48.75;;;;;15.82;91.49;101175.38;5036363;28;46530;-70
2023/05/13 07:56:37;;;;;;;;;56.75;47.25;;;;;15.87;91.46;101175.16;5038132;28;45201;-71
2023/05/13 07:59:02;;;;;;;;;55.25;45.75;;;;;15.90;90.90;101181.22;5037619;28;45272;-69
2023/05/13 08:01:28;;;;;;;;;56.25;47.00;;;;;16.00;91.24;101186.84;5037844;28;45309;-73
2023/05/13 08:03:54;;;;;;;;;59.75;49.75;;;;;16.06;90.21;101186.53;5037354;28;45507;-78
2023/05/13 08:06:19;;;;;;;;;60.25;49.50;;;;;16.08;90.04;101194.44;5036317;28;45880;-75
2023/05/13 08:08:44;;;;;;;;;61.75;50.75;;;;;16.06;89.17;101183.03;5037795;28;45471;-76
2023/05/13 08:11:10;;;;;;;;;53.50;44.25;;;;;16.05;89.33;101184.81;5037500;28;45583;-76
2023/05/13 08:13:38;;;;;;;;;60.00;49.75;;;;;16.04;89.55;101176.94;5038201;28;45962;-81
2023/05/13 08:16:05;;;;;;;;;60.25;49.75;;;;;16.02;89.30;101184.97;5036984;28;46001;-74
2023/05/13 08:18:31;;;;;;;;;64.25;52.25;;;;;16.06;88.96;101180.38;5038143;28;45671;-76
2023/05/13 08:20:57;;;;;;;;;58.25;48.50;;;;;16.11;88.40;101194.25;5063831;28;45551;-77
2023/05/13 08:23:24;;;;;;;;;61.25;50.25;;;;;16.19;88.92;101185.88;5058952;28;45502;-79
2023/05/13 08:25:49;;;;;;;;;61.25;50.00;;;;;16.28;87.52;101187.16;5063343;28;45640;-77
2023/05/13 08:28:15;;;;;;;;;62.75;51.25;;;;;16.31;87.06;101192.31;5056129;28;45492;-76
2023/05/13 08:30:43;;;;;;;;;63.00;51.75;;;;;16.31;86.99;101203.78;5062564;28;45443;-76
2023/05/13 08:33:08;;;;;;;;;62.75;52.00;;;;;16.38;87.04;101192.81;5056349;28;46205;-79
2023/05/13 08:35:33;;;;;;;;;61.75;48.75;;;;;16.46;85.75;101204.75;5075217;28;45389;-74
2023/05/13 08:37:59;;;;;;;;;61.75;50.75;;;;;16.37;85.98;101176.06;5062177;28;45493;-77
2023/05/13 08:40:24;;;;;;;;;60.75;50.00;;;;;16.53;85.97;101194.66;5064694;28;45342;-78
2023/05/13 08:42:52;;;;;;;;;60.50;50.00;;;;;16.63;84.74;101195.84;5071739;28;45418;-78
2023/05/13 08:45:20;;;;;;;;;58.50;48.50;;;;;16.73;83.45;101200.66;5043724;28;45855;-80
2023/05/13 08:47:48;;;;;;;;;57.50;48.00;;;;;16.79;83.54;101194.97;5058425;28;45567;-79
2023/05/13 08:50:15;;;;;;;;;60.50;50.25;;;;;16.84;82.92;101202.69;5052424;28;45605;-76
2023/05/13 08:52:42;;;;;;;;;60.25;49.25;;;;;16.86;82.87;101206.97;5072576;28;46686;-79
2023/05/13 08:55:07;;;;;;;;;58.00;47.25;;;;;16.88;82.90;101193.59;5061993;27;45412;-76
2023/05/13 08:57:33;;;;;;;;;62.00;51.00;;;;;16.95;83.13;101197.59;5072078;28;45465;-77
2023/05/13 08:59:59;;;;;;;;;63.50;50.50;;;;;17.02;82.29;101188.41;5054264;28;46134;-77
2023/05/13 09:02:25;;;;;;;;;57.25;47.25;;;;;17.15;81.93;101199.16;5066671;28;45445;-74
2023/05/13 09:04:54;;;;;;;;;58.75;48.75;;;;;17.15;81.15;101199.16;5061062;27;45534;-75
2023/05/13 09:07:20;;;;;;;;;55.00;45.75;;;;;17.16;80.14;101197.38;5055170;28;45496;-78
2023/05/13 09:09:45;;;;;;;;;59.50;49.00;;;;;17.13;80.82;101192.22;5068313;28;45608;-78
2023/05/13 09:12:11;;;;;;;;;60.25;49.00;;;;;17.14;79.89;101196.59;5074463;27;47152;-73
2023/05/13 09:14:37;;;;;;;;;58.25;48.25;;;;;17.25;79.68;101198.63;5055984;28;46744;-74
2023/05/13 09:17:06;;;;;;;;;49.75;42.50;;;;;17.36;78.18;101199.72;5071677;28;45396;-78
2023/05/13 09:19:31;;;;;;;;;60.00;49.25;;;;;17.46;78.41;101201.81;5037516;28;45655;-75
2023/05/13 09:21:57;;;;;;;;;60.75;50.00;;;;;17.60;77.93;101196.53;5056046;28;46084;-77
2023/05/13 09:24:22;;;;;;;;;57.00;47.50;;;;;17.67;76.70;101205.84;5066291;28;45389;-73
2023/05/13 09:26:49;;;;;;;;;54.00;45.00;;;;;17.70;77.17;101195.97;5060066;28;45808;-73
2023/05/13 09:29:20;;;;;;;;;56.00;47.00;;;;;17.78;77.18;101207.00;5057060;28;45387;-81
2023/05/13 09:31:54;;;;;;;;;53.75;44.75;;;;;17.67;76.82;101205.84;5075565;28;47840;-77
2023/05/13 09:34:30;;;;;;;;;58.00;48.00;;;;;17.59;76.65;101213.44;5064262;27;45429;-77
2023/05/13 09:37:04;;;;;;;;;58.25;47.25;;;;;17.50;76.13;101216.66;5072925;28;45496;-76
2023/05/13 09:39:32;;;;;;;;;55.75;46.50;;;;;17.49;76.72;101218.44;5077607;27;45683;-74
2023/05/13 09:41:57;;;;;;;;;55.75;46.25;;;;;17.56;76.42;101215.44;5061323;28;46334;-78
2023/05/13 09:44:23;;;;;;;;;54.25;45.00;;;;;17.61;75.82;101206.22;5068866;28;45329;-76
2023/05/13 09:46:51;;;;;;;;;57.00;47.00;;;;;17.69;75.68;101204.91;5059691;28;45362;-79
2023/05/13 09:49:16;;;;;;;;;53.75;45.00;;;;;17.75;75.08;101205.41;5065528;28;45312;-77
2023/05/13 09:51:44;;;;;;;;;58.00;47.25;;;;;17.86;74.76;101209.22;5075720;28;48568;-76
2023/05/13 09:54:10;;;;;;;;;56.00;45.50;;;;;17.97;74.57;101206.75;5060254;28;45441;-81
2023/05/13 09:56:36;;;;;;;;;51.75;43.50;;;;;18.09;73.94;101205.19;5072322;28;45440;-79
2023/05/13 09:59:02;;;;;;;;;58.25;48.25;;;;;18.15;73.79;101204.78;5070981;28;45606;-77
2023/05/13 10:01:28;;;;;;;;;53.00;44.75;;;;;18.09;72.62;101205.19;5058924;28;45534;-77
2023/05/13 10:03:55;;;;;;;;;57.75;45.75;;;;;18.10;72.62;101202.41;5062361;28;45559;-76
2023/05/13 10:06:23;;;;;;;;;52.75;44.50;;;;;18.05;72.96;101203.66;5063452;28;45493;-74
2023/05/13 10:08:51;;;;;;;;;50.75;43.00;;;;;17.98;72.68;101192.47;5069215;28;45443;-73
2023/05/13 10:11:18;;;;;;;;;56.50;47.00;;;;;18.05;72.55;101196.50;5057220;28;46161;-73
2023/05/13 10:13:51;;;;;;;;;56.75;47.00;;;;;18.09;73.02;101191.88;5070228;27;45348;-76
2023/05/13 10:16:18;;;;;;;;;58.50;47.00;;;;;18.12;72.31;101180.16;5068087;28;45366;-76
2023/05/13 10:18:44;;;;;;;;;53.75;45.00;;;;;18.33;71.66;101201.91;5061421;27;46018;-73
2023/05/13 10:21:11;;;;;;;;;54.50;45.25;;;;;18.40;71.65;101197.91;5071799;28;45370;-75
2023/05/13 10:23:37;;;;;;;;;52.25;44.00;;;;;18.51;71.22;101202.53;5068906;28;46025;-74
2023/05/13 10:26:03;;;;;;;;;55.75;45.25;;;;;18.58;71.36;101195.91;5062633;28;45406;-76
2023/05/13 10:28:29;;;;;;;;;55.75;45.50;;;;;18.63;71.17;101195.56;5063165;28;45465;-76
2023/05/13 10:30:54;;;;;;;;;53.25;44.00;;;;;18.59;70.93;101194.06;5039651;27;46580;-78
2023/05/13 10:33:20;;;;;;;;;54.75;45.50;;;;;18.61;70.27;101193.03;5055769;28;45268;-80
2023/05/13 10:36:11;;;;;;;;;53.75;45.00;;;;;18.60;70.03;101206.44;5069057;27;45471;-74
2023/05/13 10:38:58;;;;;;;;;59.50;48.75;;;;;18.61;69.13;101202.81;5040344;28;45211;-75
2023/05/13 10:41:57;;;;;;;;;67.75;55.75;;;;;18.55;68.91;101198.72;5054342;28;46347;-74
2023/05/13 10:44:23;;;;;;;;;55.25;45.00;;;;;18.50;68.98;101198.16;5062345;28;45336;-79
2023/05/13 10:46:49;;;;;;;;;57.00;47.00;;;;;18.45;69.21;101186.94;5072540;28;45313;-77
2023/05/13 10:49:15;;;;;;;;;54.50;45.50;;;;;18.49;69.73;101186.66;5062045;27;45566;-78
2023/05/13 10:51:45;;;;;;;;;56.00;47.00;;;;;18.56;69.98;101184.47;5068182;28;47404;-77
2023/05/13 10:54:19;;;;;;;;;65.75;53.00;;;;;18.39;69.01;101145.59;5064212;28;45327;-76
2023/05/13 10:56:45;;;;;;;;;59.25;49.00;;;;;18.64;69.88;101171.50;5061786;27;45495;-76
2023/05/13 10:59:11;;;;;;;;;58.00;48.25;;;;;18.61;69.10;101176.19;5037456;28;45437;-78
2023/05/13 11:01:46;;;;;;;;;54.25;44.75;;;;;18.56;69.50;101173.81;5058272;28;45340;-78